Current Conditions

Updated: 21-Jul-2018 6:16 PM  
Summary / Temperature Wind Rain






Feels like: 101°F

1-hour difference
0.8°F 0.8°F colder than last hour.

24-hour difference
6.0°F6.0°F colder than yesterday at this time.

  Today Yesterday
High: 97.8°F
1:53 PM
103.1°F
3:42 PM
Low: 72.1°F
6:09 AM
71.8°F
6:11 AM
Wind from WNW WNW
1.4
Gust:  1.0 mph
0 Beaufort - Light Air

Today: 8.1 - 2:54 PM
Month: 9.2 mph - Jul 7
Rain Today: 0.00 in
Current Rate (/hr): 0.000 in
Max Rate (/hr):
Rain Yesterday: 0.00 in
Storm Rain: 0.00 in
This Month: 0.00 in
Season Total: 6.40 in
Last Rain Event: 95 days ago
Humidity / Barometer Sun / Moon
Humidity: 42 Increased 2.0% in the last hour.
Dew Point: 68.6°F Increased 0.7°F in the last hour.
Barometer: 29.803 inHg  
Baro Trend: Steady
Sunrise: 5:55 AM
Sunset: 8:10 PM
Moonrise: 4:11 PM
Moonset: 2:03 AM
Sky Conditions UV Index
Summary: Clear
Visibility: 10 miles
Clouds: None
KVIS - 5:56 PM PDT
Current: 2.0  Low 
Saturday: 9.7  Very High 
Sunday: 9.9  Very High 
Air Quality Fire Danger
 Good 
Ozone 52 ppb
PM 2.5 6 μg/m3
6:10 PM PDT
Current: 34  Low 

Local Alerts Local Forecast
Local NWS Alerts
Tonight

Partly
Cloudy
Low 73
Sun

Mostly
Sunny
High 101
Sun night

Mostly
Clear
Low 72
Mon

Sunny

High 102
Mon night

Clear

Low 72
Tue

Sunny

High 104
Tue night

Clear

Low 70

Local Radar Local Satellite Neighborhood Cam Sky Cam
Local Radar Local Satellite Neighborhood Cam Sky Cam


Nearby Personal Stations

Weather Underground PWS KCAEXETE7     Weather Underground PWS KCAEXETE6     Weather Underground PWS KCAEXETE11

Nearby Airport Stations

KVIS - Visalia, California, USA
Distance from station: W 14mi, 23km
Updated: Sat, 21-Jul-2018 5:56pm PDT
Clear
Clear
 Wind from N
Wind: N 7 mph , 11 km/h
Temperature: 97°F , 36°C
Dew Point: 64°F , 18°C
Humidity: 34%
Barometer: 29.86 inHg , 1011.2 hPa
Clouds: Clear
Visibility: 10 miles , 16 km
2018/07/22 00:56 KVIS 220056Z AUTO 35006KT 10SM CLR 36/18 A2986 RMK AO2 SLP114 T03610178
KPTV - Porterville, California, USA
Distance from station: SSE 19mi, 31km
Updated: Sat, 21-Jul-2018 5:56pm PDT
Clear
Clear
 Wind from NW
Wind: NW 8 mph , 13 km/h
Temperature: 97°F , 36°C
Dew Point: 64°F , 18°C
Humidity: 34%
Barometer: 29.88 inHg , 1011.9 hPa
Clouds: Clear
Visibility: 10 miles , 16 km
2018/07/22 00:56 KPTV 220056Z AUTO 31007KT 10SM CLR 36/18 A2988 RMK AO2 SLP119 T03610178

Metar display script from Saratoga-Weather.org



Visitor Map